Time;durP1;ratioP1;P1;durP2;ratioP2;P2;SDS_P1;SDS_P2;PMS_P1;PMS_P2;Temp;Humidity;BMP_temperature;BMP_pressure;BME280_temperature;BME280_humidity;BME280_pressure;Samples;Min_cycle;Max_cycle;Signal;HPM_P1;HPM_P2
2024/04/14 00:01:26;;;;;;;3.50;3.20;;;21.50;95.10;;;;;;5326030;26;21023;-31
2024/04/14 00:03:56;;;;;;;6.73;3.80;;;21.50;95.10;;;;;;5325871;26;20479;-31
2024/04/14 00:06:24;;;;;;;3.80;3.03;;;21.50;95.10;;;;;;5325914;26;20461;-33
2024/04/14 00:08:51;;;;;;;3.27;2.97;;;21.50;95.10;;;;;;5325622;26;20476;-33
2024/04/14 00:11:17;;;;;;;3.60;2.90;;;21.50;95.10;;;;;;5325493;26;21713;-32
2024/04/14 00:13:43;;;;;;;3.50;3.10;;;21.40;95.10;;;;;;5325281;26;20513;-31
2024/04/14 00:16:09;;;;;;;2.87;2.67;;;21.40;95.10;;;;;;5326114;26;20480;-33
2024/04/14 00:18:35;;;;;;;4.23;2.97;;;21.40;95.10;;;;;;5324123;26;20583;-33
2024/04/14 00:21:03;;;;;;;4.43;2.90;;;21.40;95.00;;;;;;5325234;26;20830;-33
2024/04/14 00:23:29;;;;;;;3.37;2.90;;;21.40;95.00;;;;;;5322905;26;21067;-31
2024/04/14 00:25:55;;;;;;;3.00;2.77;;;21.40;94.90;;;;;;5352018;26;20536;-31
2024/04/14 00:28:21;;;;;;;2.77;2.57;;;21.40;94.80;;;;;;5323877;26;20492;-33
2024/04/14 00:30:47;;;;;;;3.37;2.73;;;21.30;94.70;;;;;;5326053;26;20795;-33
2024/04/14 00:33:14;;;;;;;3.40;3.10;;;21.30;94.50;;;;;;5321632;26;20854;-34
2024/04/14 00:35:41;;;;;;;3.47;2.43;;;21.30;94.40;;;;;;5324990;26;20559;-31
2024/04/14 00:38:08;;;;;;;3.30;2.50;;;21.30;94.10;;;;;;5323053;26;20479;-33
2024/04/14 00:40:34;;;;;;;3.00;2.80;;;21.30;93.90;;;;;;5324199;26;20516;-33
2024/04/14 00:43:00;;;;;;;2.50;2.10;;;21.20;93.70;;;;;;5293412;26;20553;-33
2024/04/14 00:45:27;;;;;;;2.83;2.40;;;21.20;93.60;;;;;;5324965;26;20476;-31
2024/04/14 00:47:56;;;;;;;2.37;2.17;;;21.20;93.60;;;;;;5322394;26;20602;-30
2024/04/14 00:50:23;;;;;;;2.50;2.30;;;21.20;93.40;;;;;;5324277;26;20540;-33
2024/04/14 00:52:50;;;;;;;3.90;2.33;;;21.20;93.30;;;;;;5323415;26;20523;-30
2024/04/14 00:55:17;;;;;;;2.57;2.37;;;21.20;93.20;;;;;;5322595;26;20521;-30
2024/04/14 00:57:43;;;;;;;3.53;2.43;;;21.10;93.00;;;;;;5323619;26;20535;-33
2024/04/14 01:00:11;;;;;;;2.23;2.00;;;21.10;92.80;;;;;;5324569;26;21426;-33
2024/04/14 01:02:37;;;;;;;3.47;1.97;;;21.10;92.70;;;;;;5315924;26;21228;-33
2024/04/14 01:05:04;;;;;;;2.50;2.30;;;21.10;92.60;;;;;;5323737;26;20535;-31
2024/04/14 01:07:31;;;;;;;2.40;1.70;;;21.10;92.50;;;;;;5294101;26;20471;-31
2024/04/14 01:09:58;;;;;;;2.90;2.30;;;21.10;92.50;;;;;;5321485;26;20481;-33
2024/04/14 01:12:28;;;;;;;2.20;2.00;;;21.00;92.40;;;;;;5323957;26;20520;-31
2024/04/14 01:14:55;;;;;;;2.93;2.00;;;21.00;92.30;;;;;;5325824;26;20922;-32
2024/04/14 01:17:21;;;;;;;2.00;1.80;;;21.00;92.30;;;;;;5297834;26;20546;-32
2024/04/14 01:19:47;;;;;;;3.60;1.97;;;21.00;92.20;;;;;;5326549;26;20625;-33
2024/04/14 01:22:13;;;;;;;2.93;2.00;;;21.00;92.20;;;;;;5328989;26;20463;-32
2024/04/14 01:24:39;;;;;;;2.33;2.00;;;21.00;92.10;;;;;;5328607;26;20640;-31
2024/04/14 01:27:05;;;;;;;2.57;2.37;;;21.00;92.20;;;;;;5357113;26;21080;-31
2024/04/14 01:29:34;;;;;;;2.17;1.97;;;21.00;92.00;;;;;;5357783;26;20487;-32
2024/04/14 01:32:00;;;;;;;1.80;1.60;;;20.90;91.90;;;;;;5331748;26;20520;-33
2024/04/14 01:34:26;;;;;;;4.33;1.70;;;20.90;91.90;;;;;;5332496;26;20471;-33
2024/04/14 01:36:53;;;;;;;2.80;2.00;;;20.90;91.90;;;;;;5275013;26;20462;-33
2024/04/14 01:39:23;;;;;;;4.73;1.73;;;20.90;91.80;;;;;;5297656;26;20575;-32
2024/04/14 01:41:50;;;;;;;2.70;2.13;;;20.90;91.80;;;;;;5326737;26;20472;-32
2024/04/14 01:44:15;;;;;;;3.07;1.90;;;20.80;91.70;;;;;;5327179;26;21493;-33
2024/04/14 01:46:45;;;;;;;2.53;1.80;;;20.80;91.70;;;;;;5321437;26;20471;-33
2024/04/14 01:49:11;;;;;;;2.13;1.73;;;20.80;91.70;;;;;;5327232;26;20533;-32
2024/04/14 01:51:42;;;;;;;3.60;2.07;;;20.80;92.00;;;;;;5297930;26;20475;-33
2024/04/14 01:54:08;;;;;;;1.80;1.60;;;20.80;91.60;;;;;;5318587;26;20602;-32
2024/04/14 01:56:34;;;;;;;1.90;1.50;;;20.80;91.70;;;;;;5326742;26;20505;-33
2024/04/14 01:59:03;;;;;;;2.23;2.03;;;20.80;91.60;;;;;;5325550;26;20938;-32
2024/04/14 02:01:29;;;;;;;1.73;1.63;;;20.70;91.50;;;;;;5327091;26;20466;-33
2024/04/14 02:03:55;;;;;;;2.70;1.80;;;20.70;91.50;;;;;;5326017;26;20991;-33
2024/04/14 02:06:21;;;;;;;2.87;2.00;;;20.70;91.40;;;;;;5350842;26;21111;-33
2024/04/14 02:08:51;;;;;;;2.10;1.63;;;20.70;91.40;;;;;;5325793;26;20484;-32
2024/04/14 02:11:17;;;;;;;2.03;1.53;;;20.70;91.40;;;;;;5327087;26;20468;-32
2024/04/14 02:13:43;;;;;;;2.87;1.90;;;20.60;91.30;;;;;;5327011;26;20523;-32
2024/04/14 02:16:10;;;;;;;2.53;1.93;;;20.60;91.30;;;;;;5325537;26;21576;-33
2024/04/14 02:18:37;;;;;;;2.30;1.80;;;20.60;91.30;;;;;;5324826;26;20487;-32
2024/04/14 02:21:03;;;;;;;2.87;1.90;;;20.60;91.30;;;;;;5326654;26;20467;-33
2024/04/14 02:23:54;;;;;;;4.43;1.70;;;20.60;91.30;;;;;;5326944;26;20578;-32
2024/04/14 02:26:20;;;;;;;3.07;1.80;;;20.60;91.30;;;;;;5325884;26;20465;-32
2024/04/14 02:28:49;;;;;;;2.20;1.90;;;20.60;91.30;;;;;;5328241;26;20483;-32
2024/04/14 02:31:15;;;;;;;2.37;1.83;;;20.50;91.30;;;;;;5325365;26;20463;-33
2024/04/14 02:33:41;;;;;;;2.00;1.80;;;20.50;91.40;;;;;;5326927;26;21052;-32
2024/04/14 02:36:08;;;;;;;2.50;1.67;;;20.50;91.30;;;;;;5326981;26;20657;-32
2024/04/14 02:38:34;;;;;;;1.93;1.80;;;20.50;91.40;;;;;;5326356;26;20459;-32
2024/04/14 02:41:04;;;;;;;1.90;1.80;;;20.50;91.40;;;;;;5326381;26;20470;-32
2024/04/14 02:43:34;;;;;;;3.47;1.80;;;20.50;91.30;;;;;;5325895;26;21435;-32
2024/04/14 02:46:03;;;;;;;3.10;1.70;;;20.40;91.20;;;;;;5323564;26;20587;-32
2024/04/14 02:48:32;;;;;;;2.10;1.80;;;20.40;91.30;;;;;;5326223;26;20483;-32
2024/04/14 02:50:58;;;;;;;2.90;1.93;;;20.40;91.20;;;;;;5322318;26;20483;-32
2024/04/14 02:53:29;;;;;;;3.83;1.80;;;20.40;91.20;;;;;;5325433;26;20476;-32
2024/04/14 02:55:55;;;;;;;2.67;1.67;;;20.40;91.20;;;;;;5324242;26;20458;-32
2024/04/14 02:58:21;;;;;;;4.00;1.73;;;20.40;91.20;;;;;;5292015;26;20469;-32
2024/04/14 03:01:01;;;;;;;2.40;1.97;;;20.30;91.20;;;;;;5323658;26;21267;-32
2024/04/14 03:03:28;;;;;;;2.33;2.13;;;20.30;91.20;;;;;;5325534;26;20466;-32
2024/04/14 03:06:00;;;;;;;3.00;1.97;;;20.30;91.20;;;;;;5326498;26;20471;-32
2024/04/14 03:08:29;;;;;;;2.90;1.67;;;20.30;91.20;;;;;;5324873;26;20526;-31
2024/04/14 03:10:56;;;;;;;2.33;1.87;;;20.30;91.20;;;;;;5326068;26;20546;-32
2024/04/14 03:13:25;;;;;;;2.57;1.57;;;20.30;91.20;;;;;;5326503;26;20464;-32
2024/04/14 03:15:52;;;;;;;5.53;2.00;;;20.30;91.20;;;;;;5324689;26;20470;-32
2024/04/14 03:18:18;;;;;;;2.77;1.80;;;20.30;91.20;;;;;;5326218;26;20460;-32
2024/04/14 03:20:57;;;;;;;3.30;1.80;;;20.20;91.20;;;;;;5323778;26;20596;-32
2024/04/14 03:23:25;;;;;;;2.63;1.97;;;20.20;91.30;;;;;;5326187;26;20822;-32
2024/04/14 03:25:54;;;;;;;3.13;1.73;;;20.20;91.30;;;;;;5323957;26;20488;-32
2024/04/14 03:28:24;;;;;;;4.33;1.67;;;20.20;91.30;;;;;;5326041;26;20462;-32
2024/04/14 03:30:51;;;;;;;2.90;1.90;;;20.20;91.30;;;;;;5326714;26;20538;-33
2024/04/14 03:33:18;;;;;;;2.60;1.57;;;20.20;91.30;;;;;;5327115;26;20534;-32
2024/04/14 03:35:47;;;;;;;2.23;1.70;;;20.10;91.30;;;;;;5325529;26;20502;-32
2024/04/14 03:38:13;;;;;;;3.57;1.80;;;20.10;91.20;;;;;;5324141;26;20518;-31
2024/04/14 03:40:39;;;;;;;3.77;1.90;;;20.10;91.30;;;;;;5325980;26;20483;-30
2024/04/14 03:43:05;;;;;;;2.13;1.70;;;20.10;91.30;;;;;;5324612;26;20272;-32
2024/04/14 03:45:41;;;;;;;4.17;2.00;;;20.10;91.30;;;;;;5324163;26;20469;-33
2024/04/14 03:48:07;;;;;;;2.53;1.70;;;20.10;91.30;;;;;;5327081;26;20482;-32
2024/04/14 03:50:33;;;;;;;4.73;2.37;;;20.10;91.30;;;;;;5296799;26;20980;-32
2024/04/14 03:53:00;;;;;;;3.70;1.83;;;20.10;91.40;;;;;;5327917;26;20527;-32
2024/04/14 03:55:26;;;;;;;2.07;1.70;;;20.00;91.30;;;;;;5325012;26;20462;-32
2024/04/14 03:57:52;;;;;;;7.60;2.50;;;20.00;91.40;;;;;;5327741;26;20598;-32
2024/04/14 04:00:18;;;;;;;4.47;2.00;;;20.00;91.40;;;;;;5328719;26;20470;-32
2024/04/14 04:02:44;;;;;;;4.40;2.50;;;20.00;91.40;;;;;;5328946;26;20482;-32
2024/04/14 04:05:14;;;;;;;3.70;2.10;;;20.00;91.40;;;;;;5300291;26;20527;-32
2024/04/14 04:07:40;;;;;;;3.53;1.97;;;20.00;91.40;;;;;;5331482;26;20482;-31
2024/04/14 04:10:12;;;;;;;2.40;1.73;;;20.00;91.50;;;;;;5323306;26;20478;-32
2024/04/14 04:12:38;;;;;;;4.20;2.70;;;19.90;91.40;;;;;;5330277;26;20610;-32
2024/04/14 04:15:05;;;;;;;3.40;1.80;;;19.90;91.40;;;;;;5327820;26;21634;-32
2024/04/14 04:17:31;;;;;;;3.00;1.77;;;19.90;91.40;;;;;;5324207;26;20519;-32
2024/04/14 04:19:57;;;;;;;2.97;2.03;;;19.90;91.40;;;;;;5351950;26;21215;-32
2024/04/14 04:22:24;;;;;;;4.30;2.30;;;19.90;91.40;;;;;;5323935;26;20478;-32
2024/04/14 04:24:50;;;;;;;2.50;1.67;;;19.90;91.50;;;;;;5325858;26;20530;-30
2024/04/14 04:27:16;;;;;;;2.53;1.90;;;19.90;91.50;;;;;;5326512;26;20470;-33
2024/04/14 04:29:43;;;;;;;3.03;2.00;;;19.90;91.50;;;;;;5324198;26;20486;-32
2024/04/14 04:32:09;;;;;;;3.17;2.10;;;19.90;91.50;;;;;;5324819;26;20563;-32
2024/04/14 04:34:34;;;;;;;2.70;2.03;;;19.80;91.50;;;;;;5351911;26;20924;-32
2024/04/14 04:37:03;;;;;;;3.20;2.07;;;19.80;91.50;;;;;;5325314;26;20542;-32
2024/04/14 04:39:30;;;;;;;2.63;1.97;;;19.80;91.50;;;;;;5323020;26;21153;-33
2024/04/14 04:41:56;;;;;;;2.47;2.10;;;19.80;91.50;;;;;;5323260;26;20818;-32
2024/04/14 04:44:22;;;;;;;5.70;2.60;;;19.80;91.60;;;;;;5322772;26;20953;-32
2024/04/14 04:46:48;;;;;;;2.80;1.90;;;19.80;91.60;;;;;;5322607;26;20563;-32
2024/04/14 04:49:15;;;;;;;4.00;2.10;;;19.80;91.60;;;;;;5321863;26;20458;-33
2024/04/14 04:51:41;;;;;;;3.20;2.30;;;19.70;91.50;;;;;;5300095;26;20551;-32
2024/04/14 04:54:07;;;;;;;3.63;1.80;;;19.70;91.50;;;;;;5323332;26;21131;-31
2024/04/14 04:56:34;;;;;;;2.60;2.07;;;19.70;91.50;;;;;;5323844;26;20473;-32
2024/04/14 04:59:00;;;;;;;4.97;2.33;;;19.70;91.60;;;;;;5324041;26;20874;-32
2024/04/14 05:01:26;;;;;;;5.20;2.00;;;19.70;91.60;;;;;;5295912;26;20595;-32
2024/04/14 05:03:52;;;;;;;2.03;1.40;;;19.70;91.60;;;;;;5326536;26;20462;-32
2024/04/14 05:06:20;;;;;;;2.97;2.00;;;19.70;91.60;;;;;;5323898;26;20706;-33
2024/04/14 05:08:49;;;;;;;5.60;2.30;;;19.70;91.60;;;;;;5323795;26;20458;-32
2024/04/14 05:11:18;;;;;;;3.80;2.20;;;19.70;91.60;;;;;;5327230;26;20575;-32
2024/04/14 05:13:46;;;;;;;4.90;2.40;;;19.60;91.60;;;;;;5323766;26;20456;-33
2024/04/14 05:16:13;;;;;;;4.03;2.07;;;19.60;91.60;;;;;;5326020;26;20505;-32
2024/04/14 05:18:39;;;;;;;4.47;2.23;;;19.60;91.60;;;;;;5326746;26;21122;-32
2024/04/14 05:21:08;;;;;;;2.10;1.90;;;19.60;91.70;;;;;;5325363;26;20553;-32
2024/04/14 05:23:39;;;;;;;3.50;1.93;;;19.60;91.70;;;;;;5316917;26;21345;-32
2024/04/14 05:26:07;;;;;;;4.03;2.50;;;19.60;91.70;;;;;;5324266;26;20462;-32
2024/04/14 05:28:33;;;;;;;3.43;2.03;;;19.60;91.70;;;;;;5323978;26;21040;-32
2024/04/14 05:31:02;;;;;;;3.00;2.17;;;19.60;91.80;;;;;;5326324;26;20549;-32
2024/04/14 05:33:28;;;;;;;4.93;2.37;;;19.50;91.80;;;;;;5324435;26;20508;-32
2024/04/14 05:35:58;;;;;;;4.33;2.50;;;19.50;91.70;;;;;;5323502;26;20517;-32
2024/04/14 05:38:24;;;;;;;3.47;1.90;;;19.50;91.80;;;;;;5324309;26;20531;-32
2024/04/14 05:40:50;;;;;;;5.93;2.97;;;19.50;91.80;;;;;;5348910;26;20471;-32
2024/04/14 05:43:19;;;;;;;4.03;2.30;;;19.50;91.80;;;;;;5326461;26;20477;-32
2024/04/14 05:45:45;;;;;;;4.37;2.23;;;19.40;91.80;;;;;;5325622;26;20911;-32
2024/04/14 05:48:12;;;;;;;3.00;2.00;;;19.50;91.90;;;;;;5325058;26;20478;-32
2024/04/14 05:50:38;;;;;;;2.80;2.13;;;19.40;91.90;;;;;;5323965;26;20537;-32
2024/04/14 05:53:07;;;;;;;3.20;2.30;;;19.40;91.90;;;;;;5327027;26;21369;-32
2024/04/14 05:55:33;;;;;;;3.90;2.30;;;19.40;92.00;;;;;;5330818;26;20514;-32
2024/04/14 05:58:02;;;;;;;3.80;2.70;;;19.40;92.00;;;;;;5324377;26;20618;-32
2024/04/14 06:00:31;;;;;;;4.20;2.30;;;19.40;92.10;;;;;;5323414;26;20510;-32
2024/04/14 06:03:00;;;;;;;2.87;2.23;;;19.40;92.10;;;;;;5323987;26;20507;-32
2024/04/14 06:05:27;;;;;;;4.80;2.27;;;19.40;92.20;;;;;;5326293;26;20458;-32
2024/04/14 06:07:55;;;;;;;4.73;2.30;;;19.40;92.20;;;;;;5326748;26;20601;-32
2024/04/14 06:10:21;;;;;;;3.30;2.23;;;19.40;92.20;;;;;;5325985;26;20251;-32
2024/04/14 06:12:47;;;;;;;3.47;1.80;;;19.30;92.10;;;;;;5323419;26;20600;-32
2024/04/14 06:15:14;;;;;;;4.50;3.00;;;19.30;92.20;;;;;;5324314;26;20466;-32
2024/04/14 06:17:40;;;;;;;3.03;2.17;;;19.30;92.20;;;;;;5323828;26;20630;-32
2024/04/14 06:20:06;;;;;;;4.90;2.50;;;19.30;92.20;;;;;;5323596;26;20475;-31
2024/04/14 06:22:33;;;;;;;4.33;2.43;;;19.30;92.20;;;;;;5323849;26;20523;-32
2024/04/14 06:24:59;;;;;;;5.67;2.20;;;19.30;92.30;;;;;;5295228;26;20462;-32
2024/04/14 06:27:25;;;;;;;2.93;2.30;;;19.30;92.40;;;;;;5325647;26;21551;-32
2024/04/14 06:29:51;;;;;;;3.53;2.70;;;19.30;92.40;;;;;;5325693;26;20521;-32
2024/04/14 06:32:19;;;;;;;3.87;2.07;;;19.30;92.40;;;;;;5325890;26;20582;-31
2024/04/14 06:34:45;;;;;;;11.63;2.90;;;19.30;92.40;;;;;;5326225;26;21241;-32
2024/04/14 06:37:14;;;;;;;4.00;2.50;;;19.30;92.40;;;;;;5323541;26;20557;-32
2024/04/14 06:39:40;;;;;;;3.70;2.40;;;19.30;92.40;;;;;;5325317;26;20482;-32
2024/04/14 06:42:07;;;;;;;3.40;2.63;;;19.30;92.50;;;;;;5324677;26;20466;-32
2024/04/14 06:44:33;;;;;;;4.17;2.50;;;19.30;92.50;;;;;;5326769;26;20278;-34
2024/04/14 06:47:00;;;;;;;4.37;2.80;;;19.20;92.50;;;;;;5322822;26;20517;-33
2024/04/14 06:49:26;;;;;;;4.40;2.97;;;19.20;92.50;;;;;;5323786;26;21067;-32
2024/04/14 06:51:52;;;;;;;5.60;2.80;;;19.20;92.50;;;;;;5323371;26;20504;-32
2024/04/14 06:54:20;;;;;;;3.30;2.37;;;19.20;92.60;;;;;;5323819;26;20450;-32
2024/04/14 06:56:46;;;;;;;5.13;2.67;;;19.20;92.60;;;;;;5317494;26;20232;-32
2024/04/14 06:59:15;;;;;;;4.97;2.97;;;19.20;92.60;;;;;;5324441;26;20514;-32
2024/04/14 07:01:41;;;;;;;4.87;2.87;;;19.20;92.70;;;;;;5329414;26;20816;-32
2024/04/14 07:04:07;;;;;;;2.73;2.43;;;19.20;92.60;;;;;;5325292;26;20504;-32
2024/04/14 07:06:33;;;;;;;5.93;3.00;;;19.20;92.60;;;;;;5318550;26;20463;-32
2024/04/14 07:09:04;;;;;;;5.83;3.33;;;19.20;92.60;;;;;;5318876;26;21065;-32
2024/04/14 07:11:30;;;;;;;4.43;3.10;;;19.20;92.70;;;;;;5319025;26;20485;-32
2024/04/14 07:13:56;;;;;;;4.90;3.30;;;19.10;92.60;;;;;;5295648;26;20562;-31
2024/04/14 07:16:22;;;;;;;5.87;2.43;;;19.20;92.70;;;;;;5314583;26;20674;-30
2024/04/14 07:18:50;;;;;;;5.27;2.70;;;19.10;92.60;;;;;;5329256;26;20589;-31
2024/04/14 07:21:18;;;;;;;6.33;3.00;;;19.10;92.70;;;;;;5327232;26;20597;-31
2024/04/14 07:23:45;;;;;;;4.80;3.03;;;19.10;92.70;;;;;;5296775;26;20572;-31
2024/04/14 07:26:12;;;;;;;5.57;3.10;;;19.10;92.60;;;;;;5325906;26;20466;-31
2024/04/14 07:28:38;;;;;;;5.57;2.93;;;19.10;92.60;;;;;;5327464;26;21204;-31
2024/04/14 07:31:04;;;;;;;5.53;2.60;;;19.10;92.60;;;;;;5326798;26;20481;-31
2024/04/14 07:33:30;;;;;;;8.03;3.30;;;19.10;92.60;;;;;;5326218;26;20450;-31
2024/04/14 07:35:56;;;;;;;5.23;3.23;;;19.10;92.60;;;;;;5322704;26;20470;-31
2024/04/14 07:38:25;;;;;;;6.70;3.40;;;19.10;92.70;;;;;;5325509;26;20502;-31
2024/04/14 07:40:53;;;;;;;6.27;2.90;;;19.10;92.70;;;;;;5326769;26;20534;-32
2024/04/14 07:43:19;;;;;;;4.00;2.67;;;19.10;92.80;;;;;;5326158;26;20446;-31
2024/04/14 07:45:45;;;;;;;4.80;2.90;;;19.10;92.80;;;;;;5327224;26;20646;-31
2024/04/14 07:48:12;;;;;;;4.60;2.80;;;19.10;92.80;;;;;;5326928;26;20518;-31
2024/04/14 07:50:43;;;;;;;4.37;2.40;;;19.10;92.80;;;;;;5324932;26;20609;-31
2024/04/14 07:53:10;;;;;;;6.83;2.43;;;19.10;92.70;;;;;;5354921;26;20458;-31
2024/04/14 07:55:38;;;;;;;3.40;2.47;;;19.10;92.80;;;;;;5355008;26;20608;-31
2024/04/14 07:58:04;;;;;;;4.27;2.60;;;19.10;92.70;;;;;;5326236;26;21080;-31
2024/04/14 08:00:30;;;;;;;5.80;2.90;;;19.10;92.80;;;;;;5328475;26;20569;-31
2024/04/14 08:02:57;;;;;;;5.30;2.87;;;19.10;92.80;;;;;;5329178;26;20458;-32
2024/04/14 08:05:25;;;;;;;3.43;2.10;;;19.10;92.80;;;;;;5325654;26;20454;-32
2024/04/14 08:07:51;;;;;;;4.33;2.40;;;19.10;92.80;;;;;;5323963;26;20595;-31
2024/04/14 08:10:17;;;;;;;4.67;2.67;;;19.10;92.90;;;;;;5325572;26;20478;-31
2024/04/14 08:12:43;;;;;;;4.87;3.10;;;19.10;92.80;;;;;;5326589;26;20598;-38
2024/04/14 08:15:09;;;;;;;8.07;3.00;;;19.10;92.80;;;;;;5327880;26;20511;-38
2024/04/14 08:17:35;;;;;;;4.90;2.60;;;19.10;92.70;;;;;;5325407;26;20454;-39
2024/04/14 08:20:01;;;;;;;5.37;2.70;;;19.10;92.80;;;;;;5326863;26;20603;-38
2024/04/14 08:22:27;;;;;;;6.53;3.20;;;19.10;92.60;;;;;;5324158;26;20550;-37
2024/04/14 08:24:53;;;;;;;6.50;2.70;;;19.10;92.50;;;;;;5321332;26;20462;-37
2024/04/14 08:27:22;;;;;;;7.90;3.20;;;19.10;92.40;;;;;;5322316;26;20462;-39
2024/04/14 08:29:50;;;;;;;8.57;3.37;;;19.10;92.30;;;;;;5324007;26;20478;-40
2024/04/14 08:32:16;;;;;;;5.53;2.80;;;19.10;92.40;;;;;;5321805;26;21366;-39
2024/04/14 08:34:42;;;;;;;6.47;2.77;;;19.10;92.40;;;;;;5322680;26;20517;-39
2024/04/14 08:37:08;;;;;;;4.53;2.60;;;19.10;92.30;;;;;;5323690;26;20873;-39
2024/04/14 08:39:35;;;;;;;4.30;2.77;;;19.10;92.30;;;;;;5322753;26;21139;-39
2024/04/14 08:42:07;;;;;;;3.77;2.30;;;19.10;92.30;;;;;;5323205;26;20494;-39
2024/04/14 08:44:39;;;;;;;6.57;3.10;;;19.10;92.30;;;;;;5324473;26;21383;-39
2024/04/14 08:47:09;;;;;;;6.10;2.60;;;19.10;92.40;;;;;;5323458;26;20449;-39
2024/04/14 08:49:40;;;;;;;5.23;2.70;;;19.10;92.40;;;;;;5293228;26;20939;-38
2024/04/14 08:52:07;;;;;;;7.70;3.07;;;19.10;92.50;;;;;;5322856;26;21277;-38
2024/04/14 08:54:35;;;;;;;5.53;2.73;;;19.10;92.50;;;;;;5321807;26;20506;-39
2024/04/14 08:57:04;;;;;;;4.90;3.23;;;19.10;92.40;;;;;;5322987;26;20462;-38
2024/04/14 08:59:30;;;;;;;10.37;3.27;;;19.10;92.40;;;;;;5322005;26;20938;-39
2024/04/14 09:02:01;;;;;;;4.20;2.30;;;19.10;92.30;;;;;;5322088;26;20509;-38
2024/04/14 09:04:30;;;;;;;5.70;2.70;;;19.10;92.00;;;;;;5321301;26;20628;-41
2024/04/14 09:06:56;;;;;;;4.43;2.27;;;19.10;91.80;;;;;;5323678;26;20458;-42
2024/04/14 09:09:22;;;;;;;6.83;3.40;;;19.10;91.90;;;;;;5321389;26;20590;-39
2024/04/14 09:11:52;;;;;;;4.83;2.50;;;19.10;91.90;;;;;;5322252;26;20474;-39
2024/04/14 09:14:19;;;;;;;6.53;3.33;;;19.10;91.90;;;;;;5322187;26;20469;-37
2024/04/14 09:16:49;;;;;;;4.50;2.70;;;19.10;91.80;;;;;;5323782;26;20455;-39
2024/04/14 09:19:19;;;;;;;6.00;2.70;;;19.10;91.80;;;;;;5353672;26;20873;-38
2024/04/14 09:21:46;;;;;;;8.27;3.03;;;19.10;91.60;;;;;;5325100;26;21007;-37
2024/04/14 09:24:14;;;;;;;6.27;2.90;;;19.10;91.40;;;;;;5321883;26;20837;-38
2024/04/14 09:26:43;;;;;;;4.60;2.53;;;19.10;91.60;;;;;;5349636;26;21190;-36
2024/04/14 09:29:09;;;;;;;5.07;2.67;;;19.20;91.70;;;;;;5321691;26;20832;-39
2024/04/14 09:31:37;;;;;;;4.70;2.70;;;19.10;91.80;;;;;;5321172;26;20576;-39
2024/04/14 09:34:04;;;;;;;3.97;2.20;;;19.10;91.80;;;;;;5323416;26;20462;-39
2024/04/14 09:36:36;;;;;;;7.47;2.03;;;19.20;91.60;;;;;;5324700;26;20569;-39
2024/04/14 09:39:04;;;;;;;5.17;2.50;;;19.20;91.40;;;;;;5327442;26;21238;-36
2024/04/14 09:41:35;;;;;;;4.00;2.60;;;19.20;91.20;;;;;;5326723;26;20458;-39
2024/04/14 09:44:02;;;;;;;8.13;2.17;;;19.20;91.20;;;;;;5325837;26;20458;-38
2024/04/14 09:46:28;;;;;;;3.73;2.30;;;19.20;91.10;;;;;;5325048;26;20509;-38
2024/04/14 09:49:01;;;;;;;4.10;2.10;;;19.20;91.20;;;;;;5325607;26;20466;-37
2024/04/14 09:51:28;;;;;;;3.27;2.07;;;19.20;91.20;;;;;;5324396;26;20510;-36
2024/04/14 09:53:56;;;;;;;3.00;1.77;;;19.30;91.40;;;;;;5325109;26;20461;-39
2024/04/14 09:56:23;;;;;;;6.53;2.70;;;19.20;91.40;;;;;;5326370;26;20450;-39
2024/04/14 09:58:50;;;;;;;5.23;2.53;;;19.30;91.40;;;;;;5327021;26;20454;-37
2024/04/14 10:01:30;;;;;;;4.57;1.80;;;19.30;91.20;;;;;;5295417;26;21320;-37
2024/04/14 10:04:01;;;;;;;3.23;2.03;;;19.30;91.50;;;;;;5325302;26;21021;-38
2024/04/14 10:06:34;;;;;;;5.30;2.70;;;19.30;91.00;;;;;;5323925;26;20584;-38
2024/04/14 10:09:01;;;;;;;3.50;1.80;;;19.30;90.90;;;;;;5322607;26;20905;-37
2024/04/14 10:11:31;;;;;;;6.30;2.40;;;19.30;90.90;;;;;;5323912;26;20473;-36
2024/04/14 10:14:01;;;;;;;2.90;2.00;;;19.30;90.90;;;;;;5322907;26;20474;-38
2024/04/14 10:16:27;;;;;;;3.00;1.60;;;19.40;90.90;;;;;;5350070;26;20542;-38
2024/04/14 10:19:05;;;;;;;2.90;1.87;;;19.40;90.40;;;;;;5324355;26;21187;-39
2024/04/14 10:21:32;;;;;;;5.00;2.20;;;19.40;90.60;;;;;;5324065;26;20478;-39
2024/04/14 10:24:02;;;;;;;7.17;2.20;;;19.40;90.50;;;;;;5324337;26;21082;-36
2024/04/14 10:26:30;;;;;;;5.23;1.70;;;19.40;90.60;;;;;;5324926;26;20463;-38
2024/04/14 10:28:57;;;;;;;2.70;1.70;;;19.40;90.40;;;;;;5323727;26;20577;-38
2024/04/14 10:31:35;;;;;;;4.00;1.70;;;19.40;90.40;;;;;;5325121;26;21373;-37
2024/04/14 10:34:09;;;;;;;5.97;2.43;;;19.50;90.40;;;;;;5325685;26;21429;-38
2024/04/14 10:36:39;;;;;;;4.53;1.70;;;19.50;90.60;;;;;;5323668;26;20447;-38
2024/04/14 10:39:13;;;;;;;4.10;1.90;;;19.50;90.60;;;;;;5326283;26;20834;-39
2024/04/14 10:41:40;;;;;;;4.00;1.80;;;19.50;90.40;;;;;;5352829;26;20494;-36
2024/04/14 10:44:16;;;;;;;4.80;1.90;;;19.60;90.70;;;;;;5324528;26;20522;-39
2024/04/14 10:46:45;;;;;;;5.07;2.40;;;19.60;90.60;;;;;;5324608;26;20502;-38
2024/04/14 10:49:12;;;;;;;3.70;1.63;;;19.60;90.30;;;;;;5328513;26;20522;-38
2024/04/14 10:51:41;;;;;;;5.90;1.73;;;19.60;90.40;;;;;;5325431;26;20447;-39
2024/04/14 10:54:10;;;;;;;4.30;1.77;;;19.60;90.30;;;;;;5326564;26;20508;-38
2024/04/14 10:56:41;;;;;;;5.17;1.70;;;19.60;90.30;;;;;;5324340;26;20964;-37
2024/04/14 10:59:12;;;;;;;3.73;1.67;;;19.60;90.10;;;;;;5324871;26;20462;-39
2024/04/14 11:01:38;;;;;;;2.60;1.60;;;19.70;90.30;;;;;;5325811;26;20550;-39
2024/04/14 11:04:05;;;;;;;3.73;1.87;;;19.70;89.90;;;;;;5327100;26;20571;-39
2024/04/14 11:06:34;;;;;;;3.93;1.47;;;19.70;89.30;;;;;;5294742;26;20838;-36
2024/04/14 11:09:01;;;;;;;2.50;1.50;;;19.60;89.30;;;;;;5326325;26;20580;-39
2024/04/14 11:11:28;;;;;;;2.70;1.57;;;19.70;89.50;;;;;;5328714;26;20954;-38
2024/04/14 11:13:54;;;;;;;2.00;1.60;;;19.70;90.10;;;;;;5328743;26;20459;-39
2024/04/14 11:16:20;;;;;;;6.17;1.70;;;19.70;89.70;;;;;;5324769;26;20466;-39
2024/04/14 11:18:48;;;;;;;4.63;1.60;;;19.70;88.60;;;;;;5326785;26;21048;-36
2024/04/14 11:21:27;;;;;;;3.47;2.07;;;19.70;87.40;;;;;;5325311;26;20533;-39
2024/04/14 11:23:54;;;;;;;3.90;1.60;;;19.70;88.70;;;;;;5327690;26;20510;-38
2024/04/14 11:26:21;;;;;;;4.87;1.67;;;19.70;88.40;;;;;;5326257;26;20958;-38
2024/04/14 11:28:49;;;;;;;2.50;1.37;;;19.70;88.20;;;;;;5292362;26;21064;-38
2024/04/14 11:31:20;;;;;;;4.67;1.40;;;19.70;88.30;;;;;;5320239;26;20522;-38
2024/04/14 11:33:53;;;;;;;5.80;1.80;;;19.80;88.20;;;;;;5294809;26;20440;-37
2024/04/14 11:36:20;;;;;;;5.37;1.60;;;19.70;88.90;;;;;;5323478;26;20466;-38
2024/04/14 11:38:49;;;;;;;3.53;1.30;;;19.80;88.90;;;;;;5325569;26;20561;-38
2024/04/14 11:41:16;;;;;;;8.30;1.60;;;19.80;86.50;;;;;;5325140;26;20479;-38
2024/04/14 11:43:45;;;;;;;3.93;1.33;;;19.80;86.60;;;;;;5295977;26;21137;-38
2024/04/14 11:46:16;;;;;;;2.00;1.27;;;19.80;85.60;;;;;;5295242;26;20514;-38
2024/04/14 11:48:45;;;;;;;3.97;1.20;;;19.80;86.30;;;;;;5323367;26;20516;-39
2024/04/14 11:51:12;;;;;;;3.20;1.30;;;19.80;87.00;;;;;;5322983;26;20487;-40
2024/04/14 11:53:38;;;;;;;5.73;1.67;;;19.80;87.50;;;;;;5322369;26;20874;-40
2024/04/14 11:56:04;;;;;;;3.00;1.37;;;19.80;86.10;;;;;;5324932;26;20590;-39
2024/04/14 11:58:30;;;;;;;3.20;1.57;;;19.80;86.30;;;;;;5324155;26;20451;-39
2024/04/14 12:00:59;;;;;;;5.70;1.50;;;19.90;86.40;;;;;;5322320;26;20546;-40
2024/04/14 12:03:27;;;;;;;3.90;1.53;;;19.90;86.20;;;;;;5324576;26;20442;-40
2024/04/14 12:05:53;;;;;;;2.77;1.60;;;19.90;86.50;;;;;;5322809;26;20456;-38
2024/04/14 12:08:20;;;;;;;2.50;1.17;;;19.90;86.50;;;;;;5323340;26;21005;-36
2024/04/14 12:10:46;;;;;;;3.63;1.67;;;19.90;85.00;;;;;;5322342;26;20498;-40
2024/04/14 12:13:14;;;;;;;2.47;1.40;;;19.90;85.10;;;;;;5323761;26;21076;-39
2024/04/14 12:15:45;;;;;;;1.80;1.00;;;19.90;85.20;;;;;;5324501;26;21415;-39
2024/04/14 12:18:12;;;;;;;3.03;1.40;;;20.00;86.00;;;;;;5324823;26;20635;-40
2024/04/14 12:20:38;;;;;;;6.03;1.40;;;20.00;85.40;;;;;;5354392;26;20529;-40
2024/04/14 12:23:04;;;;;;;2.43;1.40;;;20.00;84.50;;;;;;5323317;26;21426;-40
2024/04/14 12:25:30;;;;;;;2.77;1.03;;;20.00;85.30;;;;;;5321635;26;20503;-39
2024/04/14 12:27:56;;;;;;;1.90;1.07;;;20.00;84.60;;;;;;5319987;26;20462;-40
2024/04/14 12:30:22;;;;;;;4.07;1.63;;;20.00;85.10;;;;;;5321573;26;20534;-39
2024/04/14 12:32:48;;;;;;;3.33;1.27;;;20.00;84.90;;;;;;5293379;26;20462;-40
2024/04/14 12:35:14;;;;;;;2.00;1.10;;;20.10;84.90;;;;;;5322602;26;20514;-39
2024/04/14 12:37:40;;;;;;;2.83;1.23;;;20.10;84.80;;;;;;5323777;26;20495;-40
2024/04/14 12:40:07;;;;;;;6.13;1.77;;;20.10;84.80;;;;;;5322998;26;20808;-39
2024/04/14 12:42:33;;;;;;;2.00;1.13;;;20.10;84.60;;;;;;5321994;26;20454;-40
2024/04/14 12:44:59;;;;;;;4.93;1.40;;;20.10;84.50;;;;;;5323115;26;20598;-40
2024/04/14 12:47:27;;;;;;;3.00;1.43;;;20.20;85.10;;;;;;5322834;26;21079;-38
2024/04/14 12:49:55;;;;;;;2.90;1.40;;;20.20;84.80;;;;;;5324471;26;20515;-40